createdAt,value
2019-02-12T00:00:39.069Z,2.83
2019-02-12T00:03:45.720Z,3.50
2019-02-12T00:06:52.213Z,4.03
2019-02-12T00:09:59.810Z,5.33
2019-02-12T00:13:06.573Z,7.67
2019-02-12T00:16:13.300Z,8.13
2019-02-12T00:19:19.881Z,7.23
2019-02-12T00:22:26.955Z,3.33
2019-02-12T00:25:33.424Z,6.70
2019-02-12T00:28:40.170Z,7.00
2019-02-12T00:31:47.832Z,6.90
2019-02-12T00:34:54.725Z,5.03
2019-02-12T00:38:01.595Z,7.67
2019-02-12T00:41:08.665Z,3.90
2019-02-12T00:44:15.190Z,4.87
2019-02-12T00:47:22.103Z,5.80
2019-02-12T00:50:29.069Z,5.20
2019-02-12T00:53:36.416Z,2.97
2019-02-12T00:56:43.027Z,4.60
2019-02-12T00:59:49.448Z,4.17
2019-02-12T01:02:56.340Z,6.50
2019-02-12T01:06:02.545Z,12.80
2019-02-12T01:09:09.432Z,2.67
2019-02-12T01:12:16.661Z,3.60
2019-02-12T01:15:23.139Z,6.47
2019-02-12T01:18:29.573Z,6.50
2019-02-12T01:21:36.991Z,3.33
2019-02-12T01:24:43.486Z,7.50
2019-02-12T01:27:50.298Z,2.83
2019-02-12T01:30:57.009Z,10.53
2019-02-12T01:34:03.466Z,11.37
2019-02-12T01:37:09.698Z,6.07
2019-02-12T01:40:15.955Z,10.83
2019-02-12T01:43:22.257Z,15.37
2019-02-12T01:46:29.227Z,4.33
2019-02-12T01:49:35.614Z,8.30
2019-02-12T01:52:42.014Z,7.20
2019-02-12T01:55:48.665Z,6.27
2019-02-12T01:58:54.904Z,3.60
2019-02-12T02:02:01.476Z,8.03
2019-02-12T02:05:08.871Z,5.37
2019-02-12T02:08:15.551Z,3.60
2019-02-12T02:11:22.292Z,6.50
2019-02-12T02:14:28.922Z,3.43
2019-02-12T02:17:35.432Z,1.63
2019-02-12T02:20:42.020Z,4.50
2019-02-12T02:23:48.449Z,7.20
2019-02-12T02:26:54.867Z,7.90
2019-02-12T02:30:02.032Z,8.10
2019-02-12T02:33:08.617Z,2.20
2019-02-12T02:36:15.019Z,5.43
2019-02-12T02:39:21.328Z,2.30
2019-02-12T02:42:27.913Z,2.00
2019-02-12T02:45:35.030Z,5.03
2019-02-12T02:48:41.510Z,9.47
2019-02-12T02:51:53.952Z,7.60
2019-02-12T02:54:57.193Z,3.43
2019-02-12T02:58:04.857Z,0.60
2019-02-12T03:01:11.607Z,2.10
2019-02-12T03:04:18.253Z,1.80
2019-02-12T03:07:25.008Z,5.23
2019-02-12T03:10:31.631Z,6.20
2019-02-12T03:13:40.277Z,2.60
2019-02-12T03:16:47.042Z,5.57
2019-02-12T03:19:53.338Z,3.87
2019-02-12T03:23:00.187Z,4.43
2019-02-12T03:26:07.142Z,11.60
2019-02-12T03:29:14.452Z,6.07
2019-02-12T03:32:20.967Z,3.07
2019-02-12T03:35:27.516Z,7.00
2019-02-12T03:38:33.872Z,6.00
2019-02-12T03:41:39.997Z,3.37
2019-02-12T03:44:46.256Z,6.30
2019-02-12T03:47:52.507Z,11.03
2019-02-12T03:51:00.447Z,2.07
2019-02-12T03:54:07.112Z,14.97
2019-02-12T03:57:13.583Z,2.83
2019-02-12T04:00:20.029Z,13.23
2019-02-12T04:03:26.232Z,9.93
2019-02-12T04:06:32.550Z,11.00
2019-02-12T04:09:38.913Z,4.80
2019-02-12T04:12:46.435Z,3.80
2019-02-12T04:15:54.622Z,6.80
2019-02-12T04:19:01.707Z,8.07
2019-02-12T04:22:08.589Z,7.17
2019-02-12T04:25:15.078Z,0.90
2019-02-12T04:28:22.771Z,6.33
2019-02-12T04:31:29.441Z,4.33
2019-02-12T04:34:36.195Z,1.57
2019-02-12T04:37:42.841Z,8.10
2019-02-12T04:40:49.337Z,8.00
2019-02-12T04:43:55.792Z,2.93
2019-02-12T04:47:02.244Z,11.13
2019-02-12T04:50:09.656Z,9.47
2019-02-12T04:53:16.183Z,4.27
2019-02-12T04:56:22.751Z,6.60
2019-02-12T04:59:29.373Z,16.13
2019-02-12T05:02:35.848Z,4.63
2019-02-12T05:05:42.156Z,7.10
2019-02-12T05:09:11.736Z,6.20
2019-02-12T05:12:19.967Z,5.27
2019-02-12T05:15:26.346Z,2.30
2019-02-12T05:18:33.264Z,4.10
2019-02-12T05:21:40.318Z,3.90
2019-02-12T05:24:46.938Z,7.17
2019-02-12T05:27:53.296Z,3.20
2019-02-12T05:30:59.678Z,3.70
2019-02-12T05:34:07.263Z,4.83
2019-02-12T05:37:13.461Z,5.03
2019-02-12T05:40:20.070Z,4.37
2019-02-12T05:43:26.565Z,6.97
2019-02-12T05:46:33.433Z,3.67
2019-02-12T05:49:40.157Z,11.23
2019-02-12T05:52:53.812Z,5.00
2019-02-12T05:55:54.743Z,3.07
2019-02-12T05:59:01.040Z,5.10
2019-02-12T06:02:07.691Z,4.27
2019-02-12T06:05:26.353Z,7.10
2019-02-12T06:08:33.743Z,7.23
2019-02-12T06:11:41.071Z,5.83
2019-02-12T06:14:47.555Z,4.33
2019-02-12T06:17:54.693Z,11.07
2019-02-12T06:21:01.268Z,9.93
2019-02-12T06:24:07.940Z,1.27
2019-02-12T06:27:14.409Z,9.10
2019-02-12T06:30:21.333Z,4.73
2019-02-12T06:33:28.394Z,10.17
2019-02-12T06:36:35.529Z,5.40
2019-02-12T06:39:42.163Z,10.83
2019-02-12T06:42:49.028Z,3.03
2019-02-12T06:45:56.038Z,4.23
2019-02-12T06:49:02.851Z,4.83
2019-02-12T06:52:09.675Z,7.90
2019-02-12T06:55:16.057Z,3.50
2019-02-12T06:58:22.791Z,6.97
2019-02-12T07:01:29.028Z,1.87
2019-02-12T07:04:35.803Z,6.93
2019-02-12T07:08:34.880Z,5.23
2019-02-12T07:12:20.760Z,3.70
2019-02-12T07:15:38.357Z,3.13
2019-02-12T07:19:26.067Z,3.00
2019-02-12T07:23:11.417Z,8.90
2019-02-12T07:26:46.853Z,2.40
2019-02-12T07:30:27.375Z,8.20
2019-02-12T07:34:15.166Z,2.00
2019-02-12T07:38:14.922Z,2.80
2019-02-12T07:41:37.954Z,6.50
2019-02-12T07:45:33.711Z,4.97
2019-02-12T07:48:59.268Z,5.67
2019-02-12T07:52:43.792Z,10.23
2019-02-12T07:56:37.893Z,11.63
2019-02-12T08:00:32.625Z,4.23
2019-02-12T08:04:03.938Z,2.43
2019-02-12T08:07:50.432Z,4.50
2019-02-12T08:11:27.064Z,2.70
2019-02-12T08:14:44.678Z,7.20
2019-02-12T08:18:31.564Z,4.47
2019-02-12T08:22:26.777Z,7.53
2019-02-12T08:26:05.250Z,5.80
2019-02-12T08:30:04.704Z,2.13
2019-02-12T08:33:33.066Z,3.00
2019-02-12T08:37:26.108Z,8.10
2019-02-12T08:41:16.420Z,2.67
2019-02-12T08:44:39.415Z,0.63
2019-02-12T08:48:11.297Z,2.07
2019-02-12T08:51:57.735Z,11.17
2019-02-12T08:55:30.689Z,5.23
2019-02-12T08:59:03.588Z,1.17
2019-02-12T09:03:10.032Z,6.50
2019-02-12T09:06:44.628Z,2.80
2019-02-12T09:10:26.728Z,6.23
2019-02-12T09:13:52.790Z,2.37
2019-02-12T09:17:42.252Z,6.47
2019-02-12T09:21:05.296Z,6.43
2019-02-12T09:25:20.524Z,5.93
2019-02-12T09:28:58.215Z,9.53
2019-02-12T09:32:42.569Z,4.17
2019-02-12T09:36:22.021Z,1.40
2019-02-12T09:40:19.070Z,5.23
2019-02-12T09:44:07.913Z,2.27
2019-02-12T09:48:00.366Z,2.17
2019-02-12T09:51:50.580Z,0.90
2019-02-12T09:55:23.406Z,2.30
2019-02-12T09:58:55.277Z,3.70
2019-02-12T10:02:35.451Z,1.53
2019-02-12T10:06:22.856Z,2.90
2019-02-12T10:09:47.091Z,3.47
2019-02-12T10:13:41.373Z,2.40
2019-02-12T10:17:10.883Z,6.67
2019-02-12T10:20:49.565Z,5.23
2019-02-12T10:24:46.890Z,1.80
2019-02-12T10:28:30.518Z,5.20
2019-02-12T10:31:45.254Z,1.90
2019-02-12T10:34:51.975Z,4.50
2019-02-12T10:37:58.464Z,2.20
2019-02-12T10:41:05.313Z,5.20
2019-02-12T10:44:12.068Z,2.60
2019-02-12T10:47:19.246Z,3.73
2019-02-12T10:50:26.254Z,2.00
2019-02-12T10:53:32.699Z,1.97
2019-02-12T10:56:40.159Z,5.63
2019-02-12T10:59:48.473Z,1.00
2019-02-12T11:02:55.261Z,5.20
2019-02-12T11:06:03.148Z,3.53
2019-02-12T11:09:11.170Z,4.17
2019-02-12T11:12:18.040Z,4.60
2019-02-12T11:15:24.770Z,3.67
2019-02-12T11:18:31.451Z,6.30
2019-02-12T11:21:38.614Z,4.47
2019-02-12T11:24:45.317Z,3.17
2019-02-12T11:27:51.827Z,3.30
2019-02-12T11:30:58.131Z,6.23
2019-02-12T11:34:04.767Z,9.97
2019-02-12T11:37:11.647Z,9.07
2019-02-12T11:40:18.448Z,3.80
2019-02-12T11:43:26.419Z,2.50
2019-02-12T11:46:34.580Z,1.53
2019-02-12T11:49:41.813Z,5.50
2019-02-12T11:52:48.979Z,8.73
2019-02-12T11:55:55.696Z,1.33
2019-02-12T11:59:03.075Z,6.43
2019-02-12T12:02:09.514Z,2.57
2019-02-12T12:05:16.414Z,3.20
2019-02-12T12:08:23.617Z,3.53
2019-02-12T12:11:30.204Z,2.10
2019-02-12T12:14:37.207Z,1.50
2019-02-12T12:17:44.013Z,4.53
2019-02-12T12:20:50.460Z,2.90
2019-02-12T12:23:57.561Z,2.20
2019-02-12T12:27:04.076Z,2.60
2019-02-12T12:30:11.101Z,6.83
2019-02-12T12:33:17.937Z,5.10
2019-02-12T12:36:24.856Z,2.40
2019-02-12T12:39:32.063Z,7.23
2019-02-12T12:42:38.641Z,2.23
2019-02-12T12:45:45.161Z,3.97
2019-02-12T12:48:51.781Z,1.30
2019-02-12T12:51:59.017Z,4.87
2019-02-12T12:55:05.867Z,5.57
2019-02-12T12:58:13.504Z,5.30
2019-02-12T13:01:19.808Z,2.83
2019-02-12T13:04:26.510Z,2.83
2019-02-12T13:07:33.180Z,4.77
2019-02-12T13:10:41.390Z,4.83
2019-02-12T13:13:48.092Z,1.93
2019-02-12T13:16:55.535Z,2.00
2019-02-12T13:20:02.191Z,2.00
2019-02-12T13:23:09.034Z,3.40
2019-02-12T13:26:15.867Z,4.00
2019-02-12T13:29:22.722Z,7.53
2019-02-12T13:32:30.160Z,3.70
2019-02-12T13:35:36.617Z,13.97
2019-02-12T13:38:43.476Z,2.40
2019-02-12T13:41:50.117Z,12.97
2019-02-12T13:44:56.675Z,8.23
2019-02-12T13:48:03.531Z,16.80
2019-02-12T13:51:10.854Z,4.30
2019-02-12T13:54:17.421Z,8.03
2019-02-12T13:57:23.790Z,1.80
2019-02-12T14:00:33.348Z,8.93
2019-02-12T14:03:40.207Z,4.77
2019-02-12T14:06:46.828Z,3.70
2019-02-12T14:09:53.426Z,3.53
2019-02-12T14:13:00.425Z,7.17
2019-02-12T14:16:06.877Z,4.97
2019-02-12T14:19:13.867Z,5.83
2019-02-12T14:22:20.679Z,1.20
2019-02-12T14:25:27.658Z,7.43
2019-02-12T14:28:36.108Z,3.13
2019-02-12T14:31:52.565Z,2.83
2019-02-12T14:34:52.490Z,1.13
2019-02-12T14:37:59.359Z,4.17
2019-02-12T14:41:06.013Z,1.93
2019-02-12T14:44:12.822Z,3.57
2019-02-12T14:47:19.580Z,4.40
2019-02-12T14:50:27.874Z,7.07
2019-02-12T14:53:35.069Z,7.30
2019-02-12T14:56:42.024Z,4.17
2019-02-12T14:59:48.709Z,7.53
2019-02-12T15:02:55.891Z,2.10
2019-02-12T15:06:02.384Z,4.23
2019-02-12T15:09:09.507Z,3.17
2019-02-12T15:12:16.879Z,2.57
2019-02-12T15:15:24.056Z,4.40
2019-02-12T15:18:30.906Z,7.47
2019-02-12T15:21:39.204Z,3.17
2019-02-12T15:24:46.557Z,1.90
2019-02-12T15:27:53.290Z,5.47
2019-02-12T15:31:00.285Z,6.87
2019-02-12T15:34:07.266Z,4.87
2019-02-12T15:37:13.979Z,9.83
2019-02-12T15:40:22.918Z,3.77
2019-02-12T15:43:31.105Z,9.43
2019-02-12T15:46:38.685Z,2.90
2019-02-12T15:49:45.150Z,9.90
2019-02-12T15:52:51.690Z,4.23
2019-02-12T15:55:58.769Z,5.07
2019-02-12T15:59:05.254Z,3.47
2019-02-12T16:02:13.600Z,3.43
2019-02-12T16:05:20.149Z,2.43
2019-02-12T16:08:28.556Z,4.03
2019-02-12T16:11:35.571Z,8.93
2019-02-12T16:14:42.674Z,5.60
2019-02-12T16:17:50.282Z,6.80
2019-02-12T16:20:57.383Z,7.60
2019-02-12T16:24:04.349Z,3.80
2019-02-12T16:27:11.197Z,6.33
2019-02-12T16:30:18.063Z,13.73
2019-02-12T16:33:24.804Z,8.03
2019-02-12T16:36:32.050Z,6.83
2019-02-12T16:39:40.420Z,8.00
2019-02-12T16:42:47.781Z,2.60
2019-02-12T16:45:58.770Z,5.30
2019-02-12T16:49:06.677Z,4.03
2019-02-12T16:52:20.716Z,3.10
2019-02-12T16:55:23.169Z,7.83
2019-02-12T16:58:29.657Z,2.97
2019-02-12T17:01:39.950Z,5.43
2019-02-12T17:04:46.199Z,7.70
2019-02-12T17:07:53.066Z,5.00
2019-02-12T17:10:59.706Z,5.70
2019-02-12T17:14:06.573Z,17.53
2019-02-12T17:17:13.476Z,6.90
2019-02-12T17:20:20.107Z,9.17
2019-02-12T17:23:28.510Z,7.60
2019-02-12T17:26:36.414Z,6.50
2019-02-12T17:29:42.935Z,6.90
2019-02-12T17:32:49.359Z,7.83
2019-02-12T17:35:56.453Z,5.03
2019-02-12T17:39:04.809Z,3.33
2019-02-12T17:42:11.771Z,1.50
2019-02-12T17:45:19.116Z,4.70
2019-02-12T17:48:26.135Z,10.70
2019-02-12T17:51:33.477Z,5.67
2019-02-12T17:54:45.548Z,6.33
2019-02-12T17:57:52.312Z,11.23
2019-02-12T18:00:59.194Z,9.33
2019-02-12T18:04:06.275Z,13.33
2019-02-12T18:07:12.794Z,6.60
2019-02-12T18:10:25.646Z,11.73
2019-02-12T18:13:33.241Z,4.93
2019-02-12T18:16:40.955Z,8.57
2019-02-12T18:19:48.171Z,10.50
2019-02-12T18:22:54.868Z,3.77
2019-02-12T18:26:02.142Z,3.30
2019-02-12T18:29:15.054Z,5.83
2019-02-12T18:32:43.911Z,8.23
2019-02-12T18:36:02.989Z,5.60
2019-02-12T18:39:15.269Z,7.00
2019-02-12T18:42:30.322Z,4.40
2019-02-12T18:45:37.448Z,17.73
2019-02-12T18:48:44.170Z,19.53
2019-02-12T18:51:51.140Z,14.20
2019-02-12T18:54:58.126Z,18.53
2019-02-12T18:58:06.449Z,11.53
2019-02-12T19:01:14.360Z,9.50
2019-02-12T19:04:22.792Z,4.83
2019-02-12T19:07:31.014Z,11.93
2019-02-12T19:10:38.210Z,13.33
2019-02-12T19:13:45.274Z,8.60
2019-02-12T19:16:52.005Z,20.10
2019-02-12T19:19:59.606Z,7.13
2019-02-12T19:23:11.339Z,11.63
2019-02-12T19:26:18.349Z,9.50
2019-02-12T19:29:28.014Z,8.60
2019-02-12T19:32:36.643Z,7.67
2019-02-12T19:35:44.603Z,14.00
2019-02-12T19:38:51.923Z,9.43
2019-02-12T19:42:09.643Z,8.33
2019-02-12T19:45:19.832Z,11.20
2019-02-12T19:48:29.932Z,9.50
2019-02-12T19:51:40.258Z,7.47
2019-02-12T19:54:48.013Z,11.53
2019-02-12T19:57:56.066Z,13.57
2019-02-12T20:01:03.517Z,9.03
2019-02-12T20:04:12.069Z,13.47
2019-02-12T20:07:21.505Z,12.23
2019-02-12T20:10:28.173Z,14.70
2019-02-12T20:13:36.221Z,13.07
2019-02-12T20:16:44.237Z,18.03
2019-02-12T20:19:54.359Z,8.37
2019-02-12T20:23:03.397Z,14.87
2019-02-12T20:26:10.177Z,10.13
2019-02-12T20:29:18.336Z,10.70
2019-02-12T20:32:25.351Z,14.60
2019-02-12T20:35:36.482Z,23.13
2019-02-12T20:38:43.720Z,11.03
2019-02-12T20:41:52.741Z,7.73
2019-02-12T20:45:01.285Z,20.40
2019-02-12T20:48:10.027Z,12.00
2019-02-12T20:51:16.949Z,12.53
2019-02-12T20:54:23.629Z,11.10
2019-02-12T20:57:30.559Z,10.43
2019-02-12T21:00:38.755Z,14.70
2019-02-12T21:03:45.775Z,8.60
2019-02-12T21:06:52.239Z,14.43
2019-02-12T21:09:59.159Z,11.70
2019-02-12T21:13:06.275Z,8.93
2019-02-12T21:16:13.259Z,11.27
2019-02-12T21:19:20.184Z,9.67
2019-02-12T21:22:27.349Z,11.63
2019-02-12T21:25:34.288Z,7.23
2019-02-12T21:28:42.171Z,9.37
2019-02-12T21:31:49.048Z,11.37
2019-02-12T21:34:55.523Z,10.27
2019-02-12T21:38:06.870Z,14.07
2019-02-12T21:41:13.434Z,7.73
2019-02-12T21:44:20.024Z,16.90
2019-02-12T21:47:26.687Z,14.10
2019-02-12T21:50:33.477Z,12.93
2019-02-12T21:53:39.743Z,13.13
2019-02-12T21:56:46.288Z,15.93
2019-02-12T21:59:53.055Z,21.23
2019-02-12T22:03:00.126Z,20.17
2019-02-12T22:06:09.018Z,13.03
2019-02-12T22:09:15.666Z,15.90
2019-02-12T22:12:26.105Z,103.10
2019-02-12T22:15:33.344Z,80.60
2019-02-12T22:18:40.366Z,53.97
2019-02-12T22:21:46.790Z,41.10
2019-02-12T22:24:54.535Z,23.77
2019-02-12T22:28:01.122Z,30.87
2019-02-12T22:31:10.100Z,31.90
2019-02-12T22:34:16.689Z,27.03
2019-02-12T22:37:23.401Z,32.80
2019-02-12T22:40:30.383Z,32.67
2019-02-12T22:43:36.989Z,20.97
2019-02-12T22:46:43.681Z,24.30
2019-02-12T22:49:50.761Z,38.07
2019-02-12T22:52:57.606Z,31.77
2019-02-12T22:56:04.373Z,27.90
2019-02-12T22:59:11.031Z,30.17
2019-02-12T23:02:17.330Z,23.77
2019-02-12T23:05:24.164Z,18.17
2019-02-12T23:08:31.145Z,14.70
2019-02-12T23:11:38.524Z,13.43
2019-02-12T23:14:45.617Z,11.33
2019-02-12T23:17:52.587Z,9.20
2019-02-12T23:20:59.088Z,11.33
2019-02-12T23:24:05.547Z,5.23
2019-02-12T23:27:12.605Z,8.20
2019-02-12T23:30:19.019Z,7.47
2019-02-12T23:33:25.640Z,7.07
2019-02-12T23:36:32.068Z,10.37
2019-02-12T23:39:39.013Z,6.90
2019-02-12T23:42:46.010Z,11.83
2019-02-12T23:45:52.405Z,7.20
2019-02-12T23:48:59.170Z,5.60
2019-02-12T23:52:05.860Z,7.87
2019-02-12T23:55:12.196Z,12.60
2019-02-12T23:58:19.701Z,6.37
